createdAt,value
2018-08-04T00:00:26.715Z,56.31
2018-08-04T00:02:54.933Z,55.48
2018-08-04T00:05:23.145Z,55.47
2018-08-04T00:07:51.292Z,55.87
2018-08-04T00:10:21.267Z,56.45
2018-08-04T00:12:51.502Z,56.18
2018-08-04T00:15:20.222Z,55.86
2018-08-04T00:17:49.076Z,56.06
2018-08-04T00:20:17.475Z,57.00
2018-08-04T00:22:46.129Z,57.09
2018-08-04T00:25:14.460Z,57.10
2018-08-04T00:27:42.646Z,56.90
2018-08-04T00:30:13.234Z,57.45
2018-08-04T00:32:42.124Z,57.37
2018-08-04T00:35:11.126Z,57.17
2018-08-04T00:37:39.700Z,57.83
2018-08-04T00:40:10.027Z,57.94
2018-08-04T00:42:38.343Z,58.07
2018-08-04T00:45:06.852Z,58.26
2018-08-04T00:47:35.278Z,57.82
2018-08-04T00:50:03.804Z,58.11
2018-08-04T00:52:31.940Z,58.00
2018-08-04T00:55:00.267Z,58.55
2018-08-04T00:57:28.846Z,58.45
2018-08-04T00:59:57.371Z,58.40
2018-08-04T01:02:25.901Z,58.86
2018-08-04T01:04:54.146Z,59.16
2018-08-04T01:07:22.552Z,58.39
2018-08-04T01:09:50.724Z,58.70
2018-08-04T01:12:18.850Z,59.01
2018-08-04T01:14:47.135Z,58.73
2018-08-04T01:17:15.452Z,57.72
2018-08-04T01:19:43.610Z,57.53
2018-08-04T01:22:11.743Z,58.16
2018-08-04T01:24:40.180Z,58.07
2018-08-04T01:27:08.498Z,58.26
2018-08-04T01:29:36.766Z,58.41
2018-08-04T01:32:04.992Z,57.79
2018-08-04T01:34:33.666Z,58.69
2018-08-04T01:37:01.875Z,58.15
2018-08-04T01:39:30.347Z,58.11
2018-08-04T01:41:58.795Z,58.97
2018-08-04T01:44:27.053Z,59.15
2018-08-04T01:46:55.271Z,58.60
2018-08-04T01:49:23.490Z,58.46
2018-08-04T01:51:51.621Z,58.72
2018-08-04T01:54:19.999Z,59.70
2018-08-04T01:56:48.307Z,59.13
2018-08-04T01:59:16.598Z,58.91
2018-08-04T02:01:45.002Z,59.92
2018-08-04T02:04:13.283Z,59.97
2018-08-04T02:06:41.664Z,59.35
2018-08-04T02:09:11.164Z,59.52
2018-08-04T02:11:39.446Z,60.20
2018-08-04T02:14:07.602Z,59.61
2018-08-04T02:16:35.970Z,59.81
2018-08-04T02:19:04.156Z,60.02
2018-08-04T02:21:32.534Z,60.08
2018-08-04T02:24:00.886Z,59.93
2018-08-04T02:26:29.124Z,60.99
2018-08-04T02:28:57.296Z,60.83
2018-08-04T02:31:25.663Z,60.09
2018-08-04T02:33:53.976Z,60.80
2018-08-04T02:36:22.119Z,60.44
2018-08-04T02:38:50.378Z,61.18
2018-08-04T02:41:18.654Z,60.49
2018-08-04T02:43:46.818Z,61.31
2018-08-04T02:46:15.163Z,61.37
2018-08-04T02:48:43.519Z,61.15
2018-08-04T02:51:11.653Z,60.90
2018-08-04T02:53:39.971Z,60.43
2018-08-04T02:56:08.185Z,60.38
2018-08-04T02:58:36.356Z,61.08
2018-08-04T03:01:04.526Z,60.55
2018-08-04T03:03:32.862Z,60.64
2018-08-04T03:06:01.026Z,60.62
2018-08-04T03:08:29.443Z,60.85
2018-08-04T03:10:57.589Z,61.83
2018-08-04T03:13:25.932Z,61.76
2018-08-04T03:15:54.143Z,61.81
2018-08-04T03:18:22.552Z,61.12
2018-08-04T03:20:50.775Z,61.08
2018-08-04T03:23:18.973Z,61.77
2018-08-04T03:25:47.301Z,61.17
2018-08-04T03:28:15.647Z,61.30
2018-08-04T03:30:44.163Z,62.29
2018-08-04T03:33:12.290Z,61.40
2018-08-04T03:35:40.652Z,61.69
2018-08-04T03:38:08.815Z,61.88
2018-08-04T03:40:37.152Z,61.92
2018-08-04T03:43:05.302Z,61.93
2018-08-04T03:45:33.567Z,62.90
2018-08-04T03:48:01.715Z,62.93
2018-08-04T03:50:29.958Z,62.23
2018-08-04T03:52:58.091Z,62.25
2018-08-04T03:55:26.365Z,63.30
2018-08-04T03:57:54.719Z,63.40
2018-08-04T04:00:22.963Z,62.62
2018-08-04T04:02:51.227Z,63.28
2018-08-04T04:05:20.495Z,62.98
2018-08-04T04:07:48.911Z,62.99
2018-08-04T04:10:17.076Z,63.39
2018-08-04T04:12:45.653Z,63.93
2018-08-04T04:15:13.819Z,64.30
2018-08-04T04:17:45.867Z,63.55
2018-08-04T04:20:14.306Z,64.23
2018-08-04T04:22:42.566Z,63.30
2018-08-04T04:25:10.896Z,64.47
2018-08-04T04:27:39.048Z,64.09
2018-08-04T04:30:07.480Z,64.39
2018-08-04T04:32:35.684Z,63.93
2018-08-04T04:35:04.587Z,63.74
2018-08-04T04:37:32.903Z,63.66
2018-08-04T04:40:01.428Z,64.65
2018-08-04T04:42:29.654Z,64.74
2018-08-04T04:44:57.899Z,64.65
2018-08-04T04:47:26.207Z,63.78
2018-08-04T04:49:54.348Z,64.33
2018-08-04T04:52:23.084Z,64.69
2018-08-04T04:54:51.820Z,63.96
2018-08-04T04:57:20.244Z,63.84
2018-08-04T04:59:48.535Z,63.82
2018-08-04T05:02:16.733Z,64.72
2018-08-04T05:04:44.932Z,64.12
2018-08-04T05:07:13.119Z,63.93
2018-08-04T05:09:41.237Z,64.30
2018-08-04T05:12:09.657Z,63.67
2018-08-04T05:14:37.828Z,64.03
2018-08-04T05:17:06.009Z,63.68
2018-08-04T05:19:34.242Z,63.75
2018-08-04T05:22:02.659Z,63.87
2018-08-04T05:24:31.054Z,63.92
2018-08-04T05:26:59.331Z,64.57
2018-08-04T05:29:27.450Z,64.06
2018-08-04T05:31:55.698Z,64.05
2018-08-04T05:34:23.971Z,64.15
2018-08-04T05:36:52.216Z,63.70
2018-08-04T05:39:20.516Z,63.78
2018-08-04T05:41:48.739Z,64.62
2018-08-04T05:44:17.361Z,63.81
2018-08-04T05:46:45.587Z,63.85
2018-08-04T05:49:14.080Z,63.95
2018-08-04T05:51:42.248Z,65.28
2018-08-04T05:54:10.427Z,64.43
2018-08-04T05:56:38.706Z,64.30
2018-08-04T05:59:08.611Z,64.74
2018-08-04T06:01:36.754Z,64.92
2018-08-04T06:04:05.136Z,64.39
2018-08-04T06:06:33.340Z,64.90
2018-08-04T06:09:01.715Z,64.82
2018-08-04T06:11:30.064Z,64.35
2018-08-04T06:13:58.404Z,64.44
2018-08-04T06:16:26.708Z,65.26
2018-08-04T06:18:55.609Z,64.64
2018-08-04T06:21:23.739Z,64.87
2018-08-04T06:23:51.902Z,64.89
2018-08-04T06:26:20.250Z,64.57
2018-08-04T06:28:48.512Z,63.86
2018-08-04T06:31:16.844Z,64.82
2018-08-04T06:33:45.299Z,63.72
2018-08-04T06:36:13.774Z,63.67
2018-08-04T06:38:42.042Z,63.72
2018-08-04T06:41:10.509Z,63.97
2018-08-04T06:43:38.803Z,63.45
2018-08-04T06:46:07.196Z,62.95
2018-08-04T06:48:35.692Z,62.75
2018-08-04T06:51:04.051Z,62.98
2018-08-04T06:53:32.396Z,62.98
2018-08-04T06:56:01.092Z,63.49
2018-08-04T06:58:29.480Z,62.84
2018-08-04T07:00:57.699Z,63.08
2018-08-04T07:03:25.957Z,63.00
2018-08-04T07:05:54.495Z,61.84
2018-08-04T07:08:22.890Z,61.88
2018-08-04T07:10:51.141Z,61.85
2018-08-04T07:13:19.702Z,62.00
2018-08-04T07:15:48.203Z,61.61
2018-08-04T07:18:16.287Z,61.44
2018-08-04T07:20:44.701Z,62.27
2018-08-04T07:23:12.919Z,61.74
2018-08-04T07:25:41.397Z,61.40
2018-08-04T07:28:09.835Z,60.85
2018-08-04T07:30:38.054Z,61.43
2018-08-04T07:33:07.346Z,60.72
2018-08-04T07:35:35.810Z,61.55
2018-08-04T07:38:04.042Z,61.22
2018-08-04T07:40:32.378Z,60.68
2018-08-04T07:43:00.732Z,60.70
2018-08-04T07:45:29.204Z,60.80
2018-08-04T07:47:57.407Z,60.43
2018-08-04T07:50:25.892Z,60.64
2018-08-04T07:52:54.060Z,60.30
2018-08-04T07:55:22.483Z,60.32
2018-08-04T07:57:50.814Z,60.36
2018-08-04T08:00:18.944Z,60.22
2018-08-04T08:02:47.141Z,59.28
2018-08-04T08:05:15.372Z,59.84
2018-08-04T08:07:43.482Z,59.84
2018-08-04T08:10:11.740Z,58.93
2018-08-04T08:12:39.871Z,59.47
2018-08-04T08:15:08.795Z,59.30
2018-08-04T08:17:37.174Z,59.39
2018-08-04T08:20:05.420Z,59.31
2018-08-04T08:22:37.332Z,58.28
2018-08-04T08:25:06.090Z,58.69
2018-08-04T08:27:34.287Z,58.58
2018-08-04T08:30:02.546Z,57.56
2018-08-04T08:32:31.086Z,58.74
2018-08-04T08:34:59.717Z,58.28
2018-08-04T08:37:27.943Z,57.42
2018-08-04T08:39:56.763Z,57.37
2018-08-04T08:42:25.228Z,57.44
2018-08-04T08:44:53.741Z,58.76
2018-08-04T08:47:21.930Z,58.02
2018-08-04T08:49:50.107Z,57.58
2018-08-04T08:52:18.314Z,57.28
2018-08-04T08:54:46.610Z,57.49
2018-08-04T08:57:14.914Z,57.57
2018-08-04T08:59:43.080Z,57.19
2018-08-04T09:02:11.326Z,57.03
2018-08-04T09:04:39.456Z,57.18
2018-08-04T09:07:07.595Z,56.63
2018-08-04T09:09:35.938Z,57.03
2018-08-04T09:12:04.022Z,57.64
2018-08-04T09:14:32.148Z,57.62
2018-08-04T09:17:00.536Z,57.50
2018-08-04T09:19:28.751Z,57.46
2018-08-04T09:21:57.207Z,56.42
2018-08-04T09:24:26.022Z,57.36
2018-08-04T09:26:54.296Z,57.02
2018-08-04T09:29:22.808Z,57.43
2018-08-04T09:31:51.611Z,56.44
2018-08-04T09:34:19.974Z,57.46
2018-08-04T09:36:48.130Z,56.06
2018-08-04T09:39:16.362Z,56.69
2018-08-04T09:41:44.668Z,56.34
2018-08-04T09:44:12.864Z,55.92
2018-08-04T09:46:41.694Z,55.61
2018-08-04T09:49:09.797Z,56.10
2018-08-04T09:51:38.335Z,55.90
2018-08-04T09:54:06.443Z,55.52
2018-08-04T09:56:34.733Z,55.83
2018-08-04T09:59:02.962Z,55.71
2018-08-04T10:01:38.184Z,56.05
2018-08-04T10:04:06.938Z,56.55
2018-08-04T10:06:35.192Z,55.54
2018-08-04T10:09:04.816Z,56.30
2018-08-04T10:11:33.024Z,55.78
2018-08-04T10:14:01.283Z,56.36
2018-08-04T10:16:29.424Z,56.07
2018-08-04T10:18:57.607Z,55.86
2018-08-04T10:21:25.996Z,56.11
2018-08-04T10:23:54.299Z,55.78
2018-08-04T10:26:22.536Z,56.77
2018-08-04T10:28:50.635Z,55.66
2018-08-04T10:31:18.783Z,55.78
2018-08-04T10:33:47.044Z,56.20
2018-08-04T10:36:15.199Z,56.74
2018-08-04T10:38:43.465Z,55.87
2018-08-04T10:41:12.236Z,56.89
2018-08-04T10:43:40.380Z,55.67
2018-08-04T10:46:08.552Z,56.29
2018-08-04T10:48:36.676Z,56.27
2018-08-04T10:51:05.026Z,56.77
2018-08-04T10:53:33.262Z,56.52
2018-08-04T10:56:01.590Z,55.44
2018-08-04T10:58:29.791Z,56.30
2018-08-04T11:00:57.906Z,56.63
2018-08-04T11:03:26.184Z,56.60
2018-08-04T11:05:56.615Z,55.86
2018-08-04T11:08:25.067Z,55.55
2018-08-04T11:10:53.857Z,55.58
2018-08-04T11:13:22.010Z,55.88
2018-08-04T11:15:50.244Z,55.51
2018-08-04T11:18:18.428Z,55.23
2018-08-04T11:20:47.061Z,56.09
2018-08-04T11:23:15.818Z,55.96
2018-08-04T11:25:44.031Z,55.35
2018-08-04T11:28:12.508Z,56.25
2018-08-04T11:30:41.143Z,54.87
2018-08-04T11:33:09.352Z,55.94
2018-08-04T11:35:37.651Z,56.23
2018-08-04T11:38:06.037Z,56.04
2018-08-04T11:40:34.190Z,54.96
2018-08-04T11:43:02.390Z,55.14
2018-08-04T11:45:31.362Z,56.23
2018-08-04T11:47:59.442Z,54.92
2018-08-04T11:50:27.783Z,55.46
2018-08-04T11:52:55.923Z,55.68
2018-08-04T11:55:24.256Z,56.05
2018-08-04T11:57:52.370Z,56.34
2018-08-04T12:00:20.572Z,55.81
2018-08-04T12:02:49.039Z,55.49
2018-08-04T12:05:17.403Z,55.76
2018-08-04T12:07:45.707Z,55.97
2018-08-04T12:10:13.856Z,55.09
2018-08-04T12:12:42.195Z,55.39
2018-08-04T12:15:10.377Z,55.62
2018-08-04T12:17:38.516Z,55.65
2018-08-04T12:20:06.807Z,55.51
2018-08-04T12:22:35.359Z,54.67
2018-08-04T12:25:03.631Z,54.59
2018-08-04T12:27:31.898Z,54.13
2018-08-04T12:30:00.171Z,54.11
2018-08-04T12:32:28.274Z,55.82
2018-08-04T12:34:56.948Z,55.08
2018-08-04T12:37:25.236Z,54.01
2018-08-04T12:39:53.752Z,54.50
2018-08-04T12:42:21.847Z,53.83
2018-08-04T12:44:50.088Z,55.16
2018-08-04T12:47:18.223Z,54.32
2018-08-04T12:49:47.512Z,54.15
2018-08-04T12:52:15.767Z,54.83
2018-08-04T12:54:44.210Z,54.78
2018-08-04T12:57:12.415Z,53.79
2018-08-04T12:59:40.627Z,54.43
2018-08-04T13:02:08.854Z,53.70
2018-08-04T13:04:38.159Z,53.60
2018-08-04T13:07:06.552Z,53.83
2018-08-04T13:09:34.690Z,53.86
2018-08-04T13:12:03.004Z,53.73
2018-08-04T13:14:31.080Z,53.96
2018-08-04T13:16:59.539Z,53.96
2018-08-04T13:19:28.055Z,53.56
2018-08-04T13:21:56.426Z,54.19
2018-08-04T13:24:24.608Z,53.05
2018-08-04T13:26:53.059Z,53.82
2018-08-04T13:29:21.845Z,53.27
2018-08-04T13:31:50.041Z,53.53
2018-08-04T13:34:18.551Z,53.48
2018-08-04T13:36:47.513Z,53.90
2018-08-04T13:39:15.792Z,53.71
2018-08-04T13:41:44.057Z,53.15
2018-08-04T13:44:12.653Z,53.05
2018-08-04T13:46:41.243Z,53.94
2018-08-04T13:49:10.003Z,52.95
2018-08-04T13:51:38.733Z,53.44
2018-08-04T13:54:07.688Z,54.09
2018-08-04T13:56:35.948Z,53.94
2018-08-04T13:59:04.192Z,54.09
2018-08-04T14:01:32.957Z,53.97
2018-08-04T14:04:01.190Z,53.69
2018-08-04T14:06:29.813Z,53.40
2018-08-04T14:08:57.946Z,53.12
2018-08-04T14:11:26.469Z,53.38
2018-08-04T14:13:56.529Z,53.61
2018-08-04T14:16:26.002Z,53.78
2018-08-04T14:18:54.436Z,53.80
2018-08-04T14:21:22.783Z,53.23
2018-08-04T14:23:51.350Z,54.17
2018-08-04T14:26:19.707Z,54.25
2018-08-04T14:28:47.976Z,53.60
2018-08-04T14:31:16.177Z,54.11
2018-08-04T14:33:44.651Z,53.25
2018-08-04T14:36:13.418Z,53.12
2018-08-04T14:38:41.527Z,53.71
2018-08-04T14:41:10.147Z,53.94
2018-08-04T14:43:38.890Z,54.08
2018-08-04T14:46:07.754Z,53.61
2018-08-04T14:48:36.225Z,53.12
2018-08-04T14:51:04.632Z,53.68
2018-08-04T14:53:32.899Z,53.11
2018-08-04T14:56:01.543Z,54.03
2018-08-04T14:58:29.867Z,54.30
2018-08-04T15:00:58.171Z,53.25
2018-08-04T15:03:26.674Z,53.83
2018-08-04T15:05:54.908Z,54.46
2018-08-04T15:08:23.110Z,53.87
2018-08-04T15:10:51.367Z,54.34
2018-08-04T15:13:19.655Z,53.82
2018-08-04T15:15:48.324Z,54.26
2018-08-04T15:18:16.793Z,54.35
2018-08-04T15:20:45.144Z,53.26
2018-08-04T15:23:13.872Z,53.30
2018-08-04T15:25:42.384Z,54.19
2018-08-04T15:28:10.909Z,53.69
2018-08-04T15:30:40.321Z,53.59
2018-08-04T15:33:08.916Z,53.87
2018-08-04T15:35:37.738Z,53.31
2018-08-04T15:38:05.944Z,53.24
2018-08-04T15:40:34.203Z,53.85
2018-08-04T15:43:13.604Z,52.93
2018-08-04T15:45:47.156Z,53.88
2018-08-04T15:48:17.341Z,52.96
2018-08-04T15:50:48.099Z,53.59
2018-08-04T15:53:18.331Z,52.56
2018-08-04T15:55:46.893Z,52.86
2018-08-04T16:01:16.138Z,51.96
2018-08-04T16:03:45.260Z,53.10
2018-08-04T16:06:15.873Z,53.01
2018-08-04T16:08:47.362Z,52.16
2018-08-04T16:11:40.071Z,52.37
2018-08-04T16:14:22.780Z,51.53
2018-08-04T16:16:51.707Z,51.54
2018-08-04T16:19:21.452Z,52.35
2018-08-04T16:21:49.627Z,51.22
2018-08-04T16:24:17.926Z,52.11
2018-08-04T16:26:51.799Z,51.41
2018-08-04T16:29:20.191Z,51.56
2018-08-04T16:31:48.700Z,51.97
2018-08-04T16:34:16.901Z,51.68
2018-08-04T16:36:45.408Z,50.80
2018-08-04T16:39:13.927Z,50.68
2018-08-04T16:41:42.280Z,51.57
2018-08-04T16:44:10.753Z,50.58
2018-08-04T16:46:39.108Z,51.21
2018-08-04T16:49:07.355Z,51.23
2018-08-04T16:51:37.412Z,51.40
2018-08-04T16:54:06.124Z,51.61
2018-08-04T16:56:34.727Z,51.48
2018-08-04T16:59:02.959Z,50.38
2018-08-04T17:01:31.291Z,50.82
2018-08-04T17:03:59.581Z,51.40
2018-08-04T17:06:27.843Z,50.38
2018-08-04T17:08:56.391Z,50.26
2018-08-04T17:11:24.603Z,50.54
2018-08-04T17:13:53.164Z,51.26
2018-08-04T17:16:22.190Z,51.28
2018-08-04T17:18:50.405Z,50.69
2018-08-04T17:21:19.087Z,50.00
2018-08-04T17:23:47.369Z,51.20
2018-08-04T17:26:15.640Z,51.59
2018-08-04T17:28:44.101Z,50.59
2018-08-04T17:31:12.349Z,50.68
2018-08-04T17:33:40.691Z,51.43
2018-08-04T17:36:08.860Z,52.11
2018-08-04T17:38:37.149Z,52.17
2018-08-04T17:41:05.562Z,50.93
2018-08-04T17:43:34.528Z,51.14
2018-08-04T17:46:02.811Z,52.07
2018-08-04T17:48:31.269Z,51.58
2018-08-04T17:50:59.467Z,51.20
2018-08-04T17:53:28.472Z,51.96
2018-08-04T17:55:57.020Z,51.82
2018-08-04T17:58:25.687Z,52.10
2018-08-04T18:00:53.921Z,52.34
2018-08-04T18:03:22.152Z,51.16
2018-08-04T18:05:50.844Z,50.93
2018-08-04T18:08:19.230Z,51.21
2018-08-04T18:10:48.131Z,51.85
2018-08-04T18:13:17.763Z,51.64
2018-08-04T18:15:45.951Z,51.63
2018-08-04T18:18:15.576Z,51.35
2018-08-04T18:20:45.663Z,50.62
2018-08-04T18:23:13.828Z,50.99
2018-08-04T18:25:42.437Z,51.56
2018-08-04T18:28:11.245Z,51.07
2018-08-04T18:30:39.424Z,50.37
2018-08-04T18:33:08.079Z,51.16
2018-08-04T18:35:36.280Z,50.34
2018-08-04T18:38:04.834Z,50.56
2018-08-04T18:40:33.107Z,50.87
2018-08-04T18:43:01.213Z,50.52
2018-08-04T18:45:29.426Z,50.04
2018-08-04T18:47:58.046Z,49.78
2018-08-04T18:50:26.486Z,49.67
2018-08-04T18:52:54.863Z,49.99
2018-08-04T18:55:23.184Z,49.86
2018-08-04T18:57:52.096Z,50.37
2018-08-04T19:00:22.176Z,49.37
2018-08-04T19:02:50.739Z,49.88
2018-08-04T19:05:19.107Z,50.07
2018-08-04T19:07:47.545Z,49.94
2018-08-04T19:10:15.940Z,48.43
2018-08-04T19:12:44.165Z,49.72
2018-08-04T19:15:12.738Z,49.77
2018-08-04T19:17:40.970Z,49.13
2018-08-04T19:20:09.237Z,48.71
2018-08-04T19:22:37.621Z,48.97
2018-08-04T19:25:06.591Z,49.92
2018-08-04T19:27:34.867Z,49.00
2018-08-04T19:30:03.682Z,49.53
2018-08-04T19:32:32.199Z,49.53
2018-08-04T19:35:00.673Z,49.57
2018-08-04T19:37:28.913Z,49.85
2018-08-04T19:39:57.322Z,49.83
2018-08-04T19:42:26.341Z,50.00
2018-08-04T19:44:54.766Z,49.91
2018-08-04T19:47:23.083Z,50.31
2018-08-04T19:49:52.526Z,49.52
2018-08-04T19:52:20.901Z,50.22
2018-08-04T19:54:50.178Z,49.59
2018-08-04T19:57:18.697Z,50.33
2018-08-04T19:59:47.127Z,50.87
2018-08-04T20:02:15.697Z,49.85
2018-08-04T20:04:45.786Z,50.08
2018-08-04T20:07:21.432Z,50.71
2018-08-04T20:09:50.444Z,50.97
2018-08-04T20:12:18.754Z,50.30
2018-08-04T20:14:47.022Z,50.10
2018-08-04T20:17:15.713Z,51.15
2018-08-04T20:19:43.907Z,50.18
2018-08-04T20:22:13.980Z,50.87
2018-08-04T20:24:42.396Z,50.00
2018-08-04T20:27:10.600Z,49.70
2018-08-04T20:29:38.786Z,50.55
2018-08-04T20:32:07.516Z,49.35
2018-08-04T20:34:36.403Z,49.08
2018-08-04T20:37:04.732Z,49.39
2018-08-04T20:39:33.151Z,48.76
2018-08-04T20:42:01.610Z,48.72
2018-08-04T20:44:30.150Z,49.26
2018-08-04T20:46:58.388Z,48.99
2018-08-04T20:49:26.660Z,49.01
2018-08-04T20:51:55.162Z,48.44
2018-08-04T20:54:23.324Z,48.38
2018-08-04T20:56:51.768Z,48.29
2018-08-04T20:59:19.914Z,48.16
2018-08-04T21:01:56.855Z,49.19
2018-08-04T21:04:25.122Z,48.90
2018-08-04T21:06:53.419Z,48.25
2018-08-04T21:09:22.303Z,49.27
2018-08-04T21:11:52.656Z,48.40
2018-08-04T21:14:22.141Z,48.66
2018-08-04T21:16:51.143Z,48.25
2018-08-04T21:19:20.641Z,48.53
2018-08-04T21:21:48.946Z,48.55
2018-08-04T21:24:18.198Z,47.97
2018-08-04T21:26:46.529Z,49.00
2018-08-04T21:29:14.944Z,48.35
2018-08-04T21:31:43.231Z,48.91
2018-08-04T21:34:12.201Z,49.35
2018-08-04T21:36:40.595Z,49.93
2018-08-04T21:39:11.584Z,49.55
2018-08-04T21:41:39.827Z,49.72
2018-08-04T21:44:07.986Z,51.31
2018-08-04T21:46:41.288Z,49.88
2018-08-04T21:49:09.775Z,50.34
2018-08-04T21:51:38.232Z,50.30
2018-08-04T21:54:06.330Z,50.00
2018-08-04T21:56:34.527Z,50.55
2018-08-04T21:59:02.775Z,51.37
2018-08-04T22:01:31.317Z,50.69
2018-08-04T22:03:59.575Z,51.32
2018-08-04T22:06:54.895Z,50.77
2018-08-04T22:09:24.708Z,50.62
2018-08-04T22:11:52.880Z,51.44
2018-08-04T22:14:21.478Z,51.10
2018-08-04T22:16:49.696Z,51.34
2018-08-04T22:19:18.046Z,52.55
2018-08-04T22:21:46.240Z,51.81
2018-08-04T22:24:14.524Z,51.84
2018-08-04T22:26:42.694Z,52.16
2018-08-04T22:29:10.972Z,52.76
2018-08-04T22:31:39.316Z,51.36
2018-08-04T22:34:07.872Z,52.44
2018-08-04T22:36:36.070Z,51.68
2018-08-04T22:39:05.425Z,51.66
2018-08-04T22:41:33.821Z,52.10
2018-08-04T22:44:01.955Z,51.85
2018-08-04T22:46:30.298Z,52.16
2018-08-04T22:48:58.477Z,50.79
2018-08-04T22:51:28.151Z,51.90
2018-08-04T22:53:57.403Z,50.67
2018-08-04T22:56:26.039Z,51.44
2018-08-04T22:58:54.506Z,50.36
2018-08-04T23:01:29.380Z,50.65
2018-08-04T23:03:57.926Z,50.25
2018-08-04T23:06:26.072Z,50.23
2018-08-04T23:08:54.283Z,50.85
2018-08-04T23:11:22.813Z,50.17
2018-08-04T23:13:51.635Z,51.01
2018-08-04T23:16:20.311Z,51.08
2018-08-04T23:18:48.870Z,49.82
2018-08-04T23:21:17.358Z,50.24
2018-08-04T23:23:45.929Z,50.48
2018-08-04T23:26:15.195Z,50.84
2018-08-04T23:28:43.708Z,50.61
2018-08-04T23:31:12.859Z,50.22
2018-08-04T23:33:41.407Z,50.12
2018-08-04T23:36:09.691Z,49.96
2018-08-04T23:38:37.963Z,50.79
2018-08-04T23:41:06.419Z,50.25
2018-08-04T23:43:34.635Z,50.31
2018-08-04T23:46:02.860Z,51.42
2018-08-04T23:48:31.145Z,51.02
2018-08-04T23:51:00.164Z,51.11
2018-08-04T23:53:28.428Z,51.69
2018-08-04T23:55:57.253Z,51.55
2018-08-04T23:58:25.659Z,51.64
